EDT,Max TemperatureF,Mean TemperatureF,Min TemperatureF,Max Dew PointF,MeanDew PointF,Min DewpointF,Max Humidity, Mean Humidity, Min Humidity, Max Sea Level PressureIn, Mean Sea Level PressureIn, Min Sea Level PressureIn, Max VisibilityMiles, Mean VisibilityMiles, Min VisibilityMiles, Max Wind SpeedMPH, Mean Wind SpeedMPH, Max Gust SpeedMPH,PrecipitationIn, CloudCover, Events, WindDirDegrees
2011-10-1,68,60,51,61,48,37,97,67,37,29.94,29.82,29.72,10,10,10,16,8,22,0.00,1,,303
2011-10-2,66,56,45,44,41,37,93,65,37,30.06,29.98,29.93,10,10,10,17,6,24,0.00,1,,283
2011-10-3,69,56,42,47,42,36,96,64,32,30.15,30.09,30.05,10,10,10,20,5,30,0.00,0,,273
2011-10-4,71,60,49,53,47,45,96,69,41,30.22,30.17,30.13,10,10,10,17,5,22,0.00,1,,311
2011-10-5,76,63,49,55,52,48,96,70,43,30.25,30.21,30.16,10,10,8,12,3,17,0.00,0,,345
2011-10-6,78,65,52,58,53,51,100,72,43,30.36,30.28,30.23,10,8,0,16,7,21,0.00,0,Fog,46
2011-10-7,77,65,53,57,54,50,89,66,43,30.45,30.39,30.34,10,10,10,12,6,16,0.00,0,,66
2011-10-8,77,66,54,59,55,52,93,66,39,30.47,30.43,30.40,10,10,10,14,8,20,0.00,0,,45
2011-10-9,79,70,61,63,61,58,90,74,58,30.40,30.35,30.29,10,10,10,18,9,25,0.00,1,,55
2011-10-10,75,69,63,66,63,59,90,82,73,30.28,30.17,30.07,10,10,10,13,7,17,T,3,Rain,56
2011-10-11,72,70,67,67,63,58,93,80,66,30.06,29.99,29.93,10,10,9,21,9,31,0.04,6,Rain,66
2011-10-12,76,73,69,73,69,64,100,92,84,29.93,29.85,29.79,10,9,2,10,3,18,0.45,6,Rain-Thunderstorm,94
2011-10-13,82,74,66,72,69,65,100,82,63,29.81,29.73,29.64,10,10,8,17,7,23,0.01,3,,189
2011-10-14,77,68,58,65,58,46,100,69,38,29.87,29.69,29.60,10,9,2,18,8,26,0.01,2,,232
2011-10-15,79,66,52,52,49,44,89,60,31,30.02,29.94,29.88,10,10,10,18,5,25,0.00,0,,245
2011-10-16,77,62,47,51,46,39,93,61,29,30.16,30.07,30.03,10,10,10,10,4,15,0.00,0,,237
2011-10-17,85,72,59,63,55,50,93,64,34,30.02,29.95,29.88,10,10,10,14,8,20,0.00,0,,219
2011-10-18,83,72,60,70,65,60,100,76,51,29.94,29.83,29.67,10,7,1,17,7,24,0.82,2,Rain,169
2011-10-19,80,69,58,74,71,51,100,84,67,29.63,29.48,29.34,10,8,2,24,10,33,0.32,6,Rain,167
2011-10-20,66,58,49,49,44,40,80,59,37,29.99,29.78,29.57,10,10,10,21,10,30,0.00,1,,240
2011-10-21,68,56,44,50,45,41,100,71,42,30.10,30.06,30.00,10,10,2,10,2,13,0.00,0,,226
2011-10-22,69,57,44,55,47,43,93,72,51,30.13,30.09,30.06,10,6,0,12,3,16,0.00,1,Fog,22
2011-10-23,71,61,51,55,52,50,96,74,51,30.14,30.11,30.08,10,10,10,10,5,14,0.00,1,,41
2011-10-24,72,61,50,55,52,45,93,67,40,30.11,30.06,30.00,10,9,4,12,4,15,0.00,0,,5
2011-10-25,70,59,47,50,46,40,93,63,33,30.25,30.19,30.10,10,10,9,16,4,23,0.00,0,,352
2011-10-26,76,60,44,54,49,43,93,66,38,30.19,30.07,29.96,10,10,7,14,5,20,0.00,0,,219
2011-10-27,80,68,56,59,55,53,87,63,39,29.96,29.88,29.79,10,10,10,20,9,28,0.00,0,,224
2011-10-28,64,58,51,54,47,44,89,76,62,30.13,30.06,29.90,10,10,10,24,12,30,0.00,7,,29
2011-10-29,56,49,42,54,47,35,100,83,66,30.11,29.91,29.84,10,8,2,23,10,32,0.02,7,Rain,318
2011-10-30,57,47,37,35,33,29,92,63,33,30.38,30.28,30.13,10,10,10,15,7,20,0.00,0,,14
2011-10-31,63,51,38,54,46,35,89,76,62,30.38,30.22,30.12,10,9,2,16,8,25,0.35,6,Rain,21